Time;durP1;ratioP1;P1;durP2;ratioP2;P2;SDS_P1;SDS_P2;PMS_P1;PMS_P2;Temp;Humidity;BMP_temperature;BMP_pressure;BME280_temperature;BME280_humidity;BME280_pressure;Samples;Min_cycle;Max_cycle;Signal;HPM_P1;HPM_P2
2022/09/29 00:02:09;;;;;;;17.50;7.22;;;;;;;10.37;74.96;98446.34;5069148;28;20101;-87
2022/09/29 00:04:36;;;;;;;13.40;6.53;;;;;;;10.39;74.71;98453.16;5075156;28;20044;-87
2022/09/29 00:07:03;;;;;;;16.23;7.35;;;;;;;10.30;74.81;98448.00;5069653;28;20120;-87
2022/09/29 00:09:30;;;;;;;17.17;7.25;;;;;;;10.35;75.09;98448.34;5074684;28;20055;-87
2022/09/29 00:11:56;;;;;;;24.88;8.50;;;;;;;10.32;75.11;98452.16;5073056;28;20047;-87
2022/09/29 00:14:23;;;;;;;28.95;8.77;;;;;;;10.39;74.78;98453.16;5067814;28;20048;-87
2022/09/29 00:16:51;;;;;;;26.65;9.80;;;;;;;10.36;74.40;98458.78;5078566;28;20443;-87
2022/09/29 00:19:18;;;;;;;17.20;8.40;;;;;;;10.40;74.23;98453.97;5084598;28;20062;-87
2022/09/29 00:21:45;;;;;;;28.40;8.13;;;;;;;10.32;74.53;98452.16;5081275;28;20046;-88
2022/09/29 00:24:12;;;;;;;20.48;8.05;;;;;;;10.38;74.71;98448.00;5058933;28;20101;-87
2022/09/29 00:26:39;;;;;;;16.95;8.07;;;;;;;10.31;74.97;98447.03;5047085;28;20032;-87
2022/09/29 00:29:05;;;;;;;16.85;8.07;;;;;;;10.32;75.39;98454.81;5068615;28;20044;-87
2022/09/29 00:31:33;;;;;;;17.73;8.50;;;;;;;10.39;75.06;98449.66;5067663;28;20451;-87
2022/09/29 00:34:00;;;;;;;22.33;9.35;;;;;;;10.32;75.63;98448.69;5051314;28;20141;-87
2022/09/29 00:36:29;;;;;;;20.67;8.80;;;;;;;10.28;75.52;98452.66;5058408;28;20661;-87
2022/09/29 00:38:57;;;;;;;20.58;8.65;;;;;;;10.27;75.45;98450.97;5065790;28;20399;-87
2022/09/29 00:41:32;;;;;;;17.95;8.38;;;;;;;10.18;74.96;98451.00;5048280;28;20051;-87
2022/09/29 00:44:13;;;;;;;14.57;7.82;;;;;;;10.18;74.46;98445.69;5068477;28;20070;-88
2022/09/29 00:46:47;;;;;;;20.80;7.95;;;;;;;10.17;74.62;98438.72;5085970;28;20519;-87
2022/09/29 00:49:38;;;;;;;15.68;8.05;;;;;;;10.05;74.86;98440.06;5063033;28;20044;-87
2022/09/29 00:52:08;;;;;;;19.00;8.18;;;;;;;10.12;75.01;98433.06;5051230;28;20100;-87
2022/09/29 00:54:38;;;;;;;20.00;8.30;;;;;;;10.12;75.21;98432.25;5068624;28;20040;-87
2022/09/29 00:57:07;;;;;;;17.88;8.35;;;;;;;10.18;74.62;98423.66;5094994;28;20032;-88
2022/09/29 00:59:45;;;;;;;17.40;8.90;;;;;;;10.09;74.10;98432.59;5052050;28;20051;-87
2022/09/29 01:02:13;;;;;;;20.85;8.02;;;;;;;10.13;74.21;98429.44;5059441;28;20040;-87
2022/09/29 01:04:40;;;;;;;19.98;7.97;;;;;;;10.23;73.77;98437.22;5059520;28;20043;-87
2022/09/29 01:07:08;;;;;;;16.40;7.00;;;;;;;10.21;73.70;98433.91;5066148;28;20040;-87
2022/09/29 01:09:37;;;;;;;25.08;9.20;;;;;;;10.15;73.56;98434.56;5058582;28;20093;-87
2022/09/29 01:12:04;;;;;;;21.90;8.18;;;;;;;10.15;73.94;98432.75;5074365;28;20060;-87
2022/09/29 01:14:31;;;;;;;18.08;7.72;;;;;;;10.12;74.02;98440.22;5061222;28;20051;-87
2022/09/29 01:16:58;;;;;;;19.83;7.65;;;;;;;10.09;74.04;98435.25;5076504;28;20176;-87
2022/09/29 01:19:38;;;;;;;14.85;8.48;;;;;;;9.89;73.99;98440.88;5059346;28;20039;-87
2022/09/29 01:22:26;;;;;;;12.80;7.68;;;;;;;9.88;73.80;98436.56;5055731;28;20048;-87
2022/09/29 01:24:57;;;;;;;10.32;6.70;;;;;;;9.99;74.50;98438.88;5091267;28;20044;-86
2022/09/29 01:28:01;;;;;;;16.98;8.25;;;;;;;9.82;75.32;98434.59;5084907;28;20036;-87
2022/09/29 01:31:13;;;;;;;14.30;6.95;;;;;;;9.83;75.43;98435.44;5073799;28;20039;-87
2022/09/29 01:33:49;;;;;;;13.32;7.45;;;;;;;9.93;74.21;98439.56;5081426;28;20402;-87
2022/09/29 01:36:38;;;;;;;19.30;7.75;;;;;;;9.85;75.33;98433.44;5091662;28;20032;-87
2022/09/29 01:39:31;;;;;;;18.90;7.88;;;;;;;9.91;75.07;98435.41;5088225;28;20126;-87
2022/09/29 01:42:06;;;;;;;17.95;6.13;;;;;;;10.04;74.82;98437.56;5085636;28;20074;-87
2022/09/29 01:44:41;;;;;;;18.92;6.93;;;;;;;10.08;74.57;98439.72;5057357;28;20101;-87
2022/09/29 01:47:34;;;;;;;16.13;6.25;;;;;;;9.95;75.32;98437.56;5075817;28;20395;-87
2022/09/29 01:50:10;;;;;;;18.60;6.55;;;;;;;10.05;75.00;98436.56;5042146;28;20575;-87
2022/09/29 01:52:41;;;;;;;12.43;5.88;;;;;;;10.03;75.57;98438.56;5066801;28;20060;-87
2022/09/29 01:55:11;;;;;;;21.30;7.55;;;;;;;10.06;75.14;98436.41;5072292;28;20048;-87
2022/09/29 01:57:46;;;;;;;20.10;7.65;;;;;;;10.07;74.86;98440.72;5085202;28;20066;-86
2022/09/29 02:00:15;;;;;;;12.02;6.50;;;;;;;10.04;75.35;98435.75;5050119;28;20063;-86
2022/09/29 02:03:05;;;;;;;15.05;7.22;;;;;;;9.87;75.63;98434.94;5060295;28;20490;-87
2022/09/29 02:05:55;;;;;;;12.75;6.80;;;;;;;9.85;75.66;98439.56;5060172;28;20395;-87
2022/09/29 02:08:33;;;;;;;15.02;8.13;;;;;;;9.89;74.68;98443.53;5071883;28;20475;-87
2022/09/29 02:11:03;;;;;;;19.48;8.27;;;;;;;10.02;74.63;98439.56;5057555;28;20666;-88
2022/09/29 02:13:33;;;;;;;15.60;7.53;;;;;;;9.92;75.47;98437.06;5088051;28;20035;-87
2022/09/29 02:16:01;;;;;;;16.23;7.57;;;;;;;9.99;75.49;98441.53;5070626;28;20553;-87
2022/09/29 02:18:32;;;;;;;13.35;6.50;;;;;;;9.93;75.27;98441.38;5097090;28;20043;-87
2022/09/29 02:21:00;;;;;;;17.92;7.03;;;;;;;9.90;75.44;98442.56;5070180;28;20048;-87
2022/09/29 02:23:27;;;;;;;13.63;6.43;;;;;;;9.91;75.72;98441.53;5084248;28;20067;-87
2022/09/29 02:25:54;;;;;;;15.70;7.20;;;;;;;9.91;75.61;98449.50;5083603;28;20048;-87
2022/09/29 02:28:21;;;;;;;24.13;7.90;;;;;;;9.89;75.77;98448.00;5052487;28;20548;-87
2022/09/29 02:30:49;;;;;;;15.10;7.60;;;;;;;9.92;75.26;98445.03;5071572;28;20047;-86
2022/09/29 02:33:17;;;;;;;13.50;6.90;;;;;;;9.83;74.89;98448.69;5079074;28;20047;-87
2022/09/29 02:36:02;;;;;;;19.05;9.00;;;;;;;9.75;74.75;98452.16;5060904;28;20043;-87
2022/09/29 02:39:02;;;;;;;19.98;7.20;;;;;;;9.71;75.39;98450.81;5072250;28;20089;-87
2022/09/29 02:41:56;;;;;;;21.33;8.25;;;;;;;9.61;75.50;98458.09;5070979;28;20487;-87
2022/09/29 02:44:53;;;;;;;19.88;8.07;;;;;;;9.67;75.58;98458.28;5069504;28;20071;-87
2022/09/29 02:47:36;;;;;;;25.58;7.63;;;;;;;9.65;75.88;98454.13;5085447;28;20092;-87
2022/09/29 02:50:25;;;;;;;17.05;8.40;;;;;;;9.60;75.55;98457.28;5073940;28;20056;-87
2022/09/29 02:53:00;;;;;;;22.00;7.63;;;;;;;9.72;75.48;98455.97;5083490;28;20059;-87
2022/09/29 02:55:32;;;;;;;23.17;8.85;;;;;;;9.79;75.25;98466.72;5081692;28;20081;-87
2022/09/29 02:58:09;;;;;;;18.00;7.95;;;;;;;9.77;75.06;98458.94;5074137;28;20035;-87
2022/09/29 03:00:36;;;;;;;21.73;7.93;;;;;;;9.88;74.94;98460.44;5055365;28;20036;-88
2022/09/29 03:03:03;;;;;;;17.55;7.88;;;;;;;9.88;75.24;98456.97;5038755;28;20048;-87
2022/09/29 03:05:30;;;;;;;19.98;7.53;;;;;;;9.84;75.62;98455.63;5070625;28;20052;-87
2022/09/29 03:07:56;;;;;;;16.63;7.57;;;;;;;9.80;75.60;98463.09;5074006;28;20042;-87
2022/09/29 03:10:23;;;;;;;14.95;7.10;;;;;;;9.76;75.87;98462.56;5043195;28;20047;-87
2022/09/29 03:12:55;;;;;;;24.65;8.20;;;;;;;9.74;75.82;98453.13;5054373;28;20445;-87
2022/09/29 03:15:22;;;;;;;12.82;7.40;;;;;;;9.82;75.82;98454.97;5057623;28;20100;-87
2022/09/29 03:17:49;;;;;;;20.10;7.32;;;;;;;9.79;76.16;98448.16;5057809;28;20035;-87
2022/09/29 03:20:16;;;;;;;18.50;7.57;;;;;;;9.82;75.77;98458.47;5090081;28;20059;-86
2022/09/29 03:22:42;;;;;;;18.10;7.75;;;;;;;9.88;75.51;98459.63;5056270;28;20048;-87
2022/09/29 03:25:11;;;;;;;19.15;7.75;;;;;;;9.81;75.36;98454.13;5076996;28;20040;-86
2022/09/29 03:27:38;;;;;;;13.50;6.78;;;;;;;9.88;75.65;98451.66;5058972;28;20047;-87
2022/09/29 03:30:05;;;;;;;14.90;6.97;;;;;;;9.94;75.09;98453.66;5056362;28;20043;-85
2022/09/29 03:32:32;;;;;;;13.43;8.20;;;;;;;9.97;74.90;98455.97;5063395;28;20526;-85
2022/09/29 03:34:59;;;;;;;16.20;7.65;;;;;;;9.94;75.29;98449.16;5057928;28;20038;-85
2022/09/29 03:37:25;;;;;;;14.70;7.00;;;;;;;9.95;75.47;98452.66;5058813;28;20084;-86
2022/09/29 03:39:52;;;;;;;19.02;8.45;;;;;;;9.98;75.49;98449.69;5061216;28;20078;-86
2022/09/29 03:42:21;;;;;;;21.52;8.05;;;;;;;9.99;75.57;98449.50;5072117;28;20069;-86
2022/09/29 03:44:48;;;;;;;13.65;7.22;;;;;;;9.99;75.22;98446.84;5062772;28;20112;-86
2022/09/29 03:47:15;;;;;;;20.15;7.53;;;;;;;10.04;75.26;98445.53;5065443;28;20148;-86
2022/09/29 03:49:41;;;;;;;18.88;7.38;;;;;;;9.97;75.26;98442.69;5074710;28;20503;-86
2022/09/29 03:52:08;;;;;;;17.15;8.38;;;;;;;9.95;75.35;98445.53;5072680;28;20536;-86
2022/09/29 03:54:35;;;;;;;30.58;11.25;;;;;;;9.98;75.29;98449.69;5074150;28;20032;-86
2022/09/29 03:57:02;;;;;;;18.50;9.95;;;;;;;9.91;75.61;98444.19;5067897;28;20047;-86
2022/09/29 03:59:28;;;;;;;20.50;9.38;;;;;;;9.94;75.67;98446.50;5068004;28;20638;-86
2022/09/29 04:01:55;;;;;;;22.27;8.00;;;;;;;9.96;75.69;98446.34;5088026;28;20548;-86
2022/09/29 04:04:22;;;;;;;14.48;7.75;;;;;;;9.96;75.69;98451.66;5082910;28;20562;-86
2022/09/29 04:06:49;;;;;;;20.30;7.72;;;;;;;9.95;75.78;98444.72;5074341;28;20039;-86
2022/09/29 04:09:15;;;;;;;14.75;7.25;;;;;;;9.95;76.06;98450.00;5078935;28;20104;-87
2022/09/29 04:11:42;;;;;;;18.63;7.82;;;;;;;9.95;76.15;98447.38;5049712;28;20051;-87
2022/09/29 04:14:09;;;;;;;12.25;7.53;;;;;;;9.96;75.88;98455.13;5083851;28;20094;-86
2022/09/29 04:16:35;;;;;;;12.35;7.55;;;;;;;9.97;76.01;98443.56;5083238;28;20960;-87
2022/09/29 04:19:02;;;;;;;19.90;7.63;;;;;;;10.00;76.08;98439.75;5067359;28;20048;-88
2022/09/29 04:21:29;;;;;;;13.23;7.57;;;;;;;10.00;76.05;98439.75;5065247;28;20045;-86
2022/09/29 04:23:55;;;;;;;18.88;9.70;;;;;;;9.97;76.31;98437.41;5085396;28;20048;-87
2022/09/29 04:26:22;;;;;;;15.88;8.40;;;;;;;9.96;76.48;98435.75;5067021;28;20075;-87
2022/09/29 04:28:49;;;;;;;21.52;9.20;;;;;;;9.94;76.90;98438.56;5067930;28;20036;-86
2022/09/29 04:31:15;;;;;;;20.05;10.02;;;;;;;9.88;77.02;98438.41;5072116;28;20039;-86
2022/09/29 04:33:42;;;;;;;18.15;9.73;;;;;;;9.90;76.82;98441.72;5077208;28;20070;-86
2022/09/29 04:36:09;;;;;;;24.73;11.98;;;;;;;9.89;76.73;98443.53;5051041;28;20052;-86
2022/09/29 04:38:36;;;;;;;23.95;10.93;;;;;;;9.89;76.58;98442.72;5068026;28;20051;-86
2022/09/29 04:41:03;;;;;;;18.15;11.55;;;;;;;9.90;76.72;98444.38;5052444;28;20051;-86
2022/09/29 04:43:29;;;;;;;21.23;10.02;;;;;;;9.87;76.92;98442.88;5041152;28;20040;-87
2022/09/29 04:46:02;;;;;;;20.85;11.07;;;;;;;9.76;76.94;98441.38;5037818;28;20044;-86
2022/09/29 04:48:28;;;;;;;23.95;11.32;;;;;;;9.81;77.32;98442.72;5082579;28;20068;-80
2022/09/29 04:51:01;;;;;;;19.58;11.20;;;;;;;9.80;77.21;98438.41;5080496;28;20048;-80
2022/09/29 04:53:28;;;;;;;18.50;11.88;;;;;;;9.77;77.13;98444.88;5071966;28;20047;-80
2022/09/29 04:55:54;;;;;;;20.45;11.05;;;;;;;9.77;77.05;98432.44;5103843;28;20039;-80
2022/09/29 04:58:21;;;;;;;22.33;10.45;;;;;;;9.81;76.86;98440.06;5069713;28;20101;-80
2022/09/29 05:00:48;;;;;;;19.33;10.73;;;;;;;9.72;77.12;98436.59;5054313;28;20410;-80
2022/09/29 05:03:15;;;;;;;17.58;10.32;;;;;;;9.73;76.79;98436.41;5087528;28;20041;-80
2022/09/29 05:05:41;;;;;;;16.17;9.10;;;;;;;9.72;76.71;98442.72;5074858;28;20066;-80
2022/09/29 05:08:08;;;;;;;16.73;9.60;;;;;;;9.66;76.67;98438.03;5082939;28;20113;-80
2022/09/29 05:10:35;;;;;;;19.17;8.57;;;;;;;9.75;76.62;98436.25;5073916;28;20085;-80
2022/09/29 05:13:01;;;;;;;18.48;8.82;;;;;;;9.69;76.56;98436.88;5081039;28;20048;-80
2022/09/29 05:15:28;;;;;;;18.92;8.75;;;;;;;9.70;76.53;98438.56;5085721;28;20047;-80
2022/09/29 05:17:55;;;;;;;17.75;8.15;;;;;;;9.69;76.42;98443.03;5082667;28;20581;-80
2022/09/29 05:20:21;;;;;;;19.48;9.13;;;;;;;9.61;76.62;98440.34;5085995;28;20040;-80
2022/09/29 05:22:48;;;;;;;17.80;7.53;;;;;;;9.65;76.55;98444.34;5083320;28;20101;-80
2022/09/29 05:25:15;;;;;;;16.25;8.10;;;;;;;9.61;76.54;98439.53;5070189;28;20445;-80
2022/09/29 05:27:41;;;;;;;18.92;8.38;;;;;;;9.65;76.74;98448.81;5077238;28;20051;-80
2022/09/29 05:30:08;;;;;;;17.33;8.32;;;;;;;9.64;76.60;98445.34;5055101;28;20371;-80
2022/09/29 05:32:35;;;;;;;18.85;8.27;;;;;;;9.57;76.81;98454.94;5066408;28;20445;-80
2022/09/29 05:35:02;;;;;;;16.02;7.90;;;;;;;9.62;76.42;98455.28;5073633;28;20059;-81
2022/09/29 05:37:29;;;;;;;17.98;8.55;;;;;;;9.60;76.77;98454.63;5052039;28;20394;-80
2022/09/29 05:39:56;;;;;;;21.67;8.55;;;;;;;9.60;76.96;98461.75;5050813;28;20063;-80
2022/09/29 05:42:24;;;;;;;22.90;9.40;;;;;;;9.59;76.92;98452.13;5081097;28;20096;-80
2022/09/29 05:44:51;;;;;;;23.25;9.18;;;;;;;9.65;76.45;98454.94;5037030;28;20044;-80
2022/09/29 05:47:17;;;;;;;20.65;9.38;;;;;;;9.65;76.79;98459.44;5073499;28;20038;-80
2022/09/29 05:49:44;;;;;;;20.80;9.20;;;;;;;9.66;77.24;98469.03;5057384;28;20470;-80
2022/09/29 05:52:11;;;;;;;14.23;7.97;;;;;;;9.66;77.27;98461.91;5066345;28;20502;-80
2022/09/29 05:54:38;;;;;;;22.00;9.20;;;;;;;9.72;77.04;98455.97;5065478;28;20048;-80
2022/09/29 05:57:04;;;;;;;17.48;8.32;;;;;;;9.75;77.18;98463.59;5072114;28;20089;-80
2022/09/29 05:59:31;;;;;;;15.52;9.27;;;;;;;9.74;77.64;98467.25;5059438;28;20445;-80
2022/09/29 06:01:57;;;;;;;20.48;9.85;;;;;;;9.81;77.28;98469.22;5071536;28;20490;-80
2022/09/29 06:04:24;;;;;;;21.17;10.02;;;;;;;9.84;77.07;98471.53;5058883;28;20032;-80
2022/09/29 06:06:51;;;;;;;21.45;9.48;;;;;;;9.85;76.81;98475.88;5084760;28;20032;-80
2022/09/29 06:09:18;;;;;;;26.77;10.02;;;;;;;9.84;76.80;98474.19;5068121;28;20086;-80
2022/09/29 06:11:45;;;;;;;20.65;9.90;;;;;;;9.82;77.02;98471.72;5082874;28;20134;-80
2022/09/29 06:14:12;;;;;;;28.75;10.13;;;;;;;9.89;76.76;98472.69;5090175;28;20067;-80
2022/09/29 06:16:38;;;;;;;22.80;10.45;;;;;;;9.90;76.84;98474.38;5088853;28;20035;-80
2022/09/29 06:19:05;;;;;;;22.35;9.57;;;;;;;9.93;76.95;98481.16;5064122;28;20036;-80
2022/09/29 06:21:34;;;;;;;22.58;10.27;;;;;;;9.95;77.19;98484.47;5088956;28;20035;-80
2022/09/29 06:24:01;;;;;;;30.48;10.60;;;;;;;9.93;76.93;98479.34;5077117;28;20105;-80
2022/09/29 06:26:28;;;;;;;20.92;10.65;;;;;;;9.95;77.17;98481.84;5088491;28;20055;-80
2022/09/29 06:28:55;;;;;;;21.27;9.35;;;;;;;9.97;77.13;98483.31;5084751;28;20471;-80
2022/09/29 06:31:24;;;;;;;24.70;10.18;;;;;;;9.95;77.26;98476.53;5080226;28;20040;-80
2022/09/29 06:33:52;;;;;;;19.88;9.50;;;;;;;10.00;77.54;98483.00;5067471;28;20063;-80
2022/09/29 06:39:10;;;;;;;16.50;8.23;;;;;;;10.05;77.71;98485.16;5083116;28;20051;-80
2022/09/29 06:41:37;;;;;;;17.88;8.73;;;;;;;10.09;77.82;98482.97;5099210;28;20097;-80
2022/09/29 06:44:07;;;;;;;19.48;9.60;;;;;;;10.13;77.99;98494.94;5068530;28;20509;-80
2022/09/29 06:46:34;;;;;;;19.73;9.45;;;;;;;10.14;78.01;98486.78;5057942;28;20105;-80
2022/09/29 06:49:01;;;;;;;24.63;9.57;;;;;;;10.15;78.28;98493.78;5054071;28;20479;-80
2022/09/29 06:51:27;;;;;;;16.67;8.95;;;;;;;10.16;78.22;98497.25;5057121;28;20052;-80
2022/09/29 06:54:15;;;;;;;22.42;9.43;;;;;;;10.13;78.21;98501.06;5100638;28;20061;-80
2022/09/29 06:56:45;;;;;;;20.63;9.52;;;;;;;10.08;78.64;98503.38;5074567;28;20047;-80
2022/09/29 06:59:12;;;;;;;16.45;8.40;;;;;;;10.14;78.24;98500.06;5072861;28;20043;-80
2022/09/29 07:01:39;;;;;;;21.33;9.30;;;;;;;10.18;78.06;98501.41;5078541;28;20039;-80
2022/09/29 07:04:06;;;;;;;24.95;10.43;;;;;;;10.19;77.84;98502.22;5070269;28;20410;-80
2022/09/29 07:06:34;;;;;;;19.77;9.85;;;;;;;10.12;77.78;98512.66;5086093;28;20035;-80
2022/09/29 07:09:00;;;;;;;23.65;9.88;;;;;;;10.16;77.83;98511.34;5058645;28;20096;-80
2022/09/29 07:11:27;;;;;;;20.25;9.88;;;;;;;10.18;77.79;98512.00;5078473;28;20555;-80
2022/09/29 07:13:54;;;;;;;20.42;9.10;;;;;;;10.20;77.63;98512.69;5043472;28;20071;-81
2022/09/29 07:16:24;;;;;;;23.33;10.10;;;;;;;10.20;77.88;98509.16;5076410;28;20135;-80
2022/09/29 07:18:51;;;;;;;24.30;10.40;;;;;;;10.27;77.99;98510.16;5067972;28;20075;-80
2022/09/29 07:21:20;;;;;;;26.73;10.20;;;;;;;10.32;77.88;98517.66;5080661;28;20047;-80
2022/09/29 07:23:48;;;;;;;26.83;10.05;;;;;;;10.37;77.71;98518.81;5063024;28;20104;-80
2022/09/29 07:26:16;;;;;;;27.92;11.52;;;;;;;10.38;78.02;98517.84;5083246;28;20044;-80
2022/09/29 07:28:44;;;;;;;22.25;9.95;;;;;;;10.40;78.32;98517.66;5079667;28;20666;-80
2022/09/29 07:31:18;;;;;;;24.98;11.07;;;;;;;10.44;78.16;98516.34;5073274;28;20074;-80
2022/09/29 07:33:47;;;;;;;28.35;11.13;;;;;;;10.46;78.57;98516.16;5040806;28;20075;-80
2022/09/29 07:36:16;;;;;;;28.02;12.43;;;;;;;10.50;78.62;98517.50;5077024;28;20044;-80
2022/09/29 07:38:47;;;;;;;24.55;10.07;;;;;;;10.49;78.54;98516.66;5070618;28;20043;-80
2022/09/29 07:41:14;;;;;;;24.77;11.45;;;;;;;10.57;78.34;98519.31;5058849;28;20111;-80
2022/09/29 07:43:41;;;;;;;22.75;10.40;;;;;;;10.62;78.51;98522.28;5059539;28;20047;-80
2022/09/29 07:46:08;;;;;;;25.15;10.95;;;;;;;10.65;78.81;98519.28;5097097;28;20506;-80
2022/09/29 07:48:36;;;;;;;21.15;10.40;;;;;;;10.75;78.26;98521.75;5069769;28;20059;-80
2022/09/29 07:51:21;;;;;;;21.23;10.73;;;;;;;10.62;78.86;98516.97;5080318;28;20044;-80
2022/09/29 07:53:47;;;;;;;22.70;10.70;;;;;;;10.79;78.23;98522.28;5073577;28;20115;-80
2022/09/29 07:56:17;;;;;;;24.15;10.73;;;;;;;10.88;77.61;98534.50;5066780;28;20031;-80
2022/09/29 07:58:51;;;;;;;25.23;10.75;;;;;;;10.83;77.78;98531.53;5079759;28;20054;-79
2022/09/29 08:01:18;;;;;;;23.70;11.48;;;;;;;10.84;78.01;98531.38;5058524;28;20047;-80
2022/09/29 08:03:51;;;;;;;27.65;11.00;;;;;;;10.86;77.77;98537.34;5074901;28;20135;-80
2022/09/29 08:06:18;;;;;;;25.40;11.43;;;;;;;10.91;78.05;98523.53;5086643;28;20048;-80
2022/09/29 08:08:45;;;;;;;24.08;11.25;;;;;;;11.04;77.59;98528.31;5048458;28;20549;-80
2022/09/29 08:11:27;;;;;;;24.17;11.23;;;;;;;11.09;77.64;98525.97;5068177;28;20120;-80
2022/09/29 08:13:58;;;;;;;20.73;10.10;;;;;;;11.15;77.28;98527.97;5084615;28;20101;-80
2022/09/29 08:16:25;;;;;;;25.27;13.10;;;;;;;11.23;77.40;98527.13;5072388;28;20044;-80
2022/09/29 08:18:52;;;;;;;21.95;10.85;;;;;;;11.30;77.21;98531.56;5054915;28;20044;-80
2022/09/29 08:21:18;;;;;;;24.90;12.25;;;;;;;11.36;77.29;98535.34;5067515;28;20100;-80
2022/09/29 08:23:45;;;;;;;22.38;10.75;;;;;;;11.36;76.96;98540.66;5071231;28;20047;-80
2022/09/29 08:26:14;;;;;;;20.75;10.70;;;;;;;11.38;76.99;98545.81;5087243;28;20043;-80
2022/09/29 08:28:41;;;;;;;22.65;10.70;;;;;;;11.40;76.73;98549.16;5067047;28;20529;-80
2022/09/29 08:31:16;;;;;;;23.88;9.65;;;;;;;11.43;76.80;98544.31;5054319;28;20047;-80
2022/09/29 08:33:43;;;;;;;27.88;10.27;;;;;;;11.50;76.94;98547.94;5073039;28;20032;-80
2022/09/29 08:36:13;;;;;;;23.13;9.02;;;;;;;11.55;77.03;98547.41;5066741;28;20062;-80
2022/09/29 08:38:45;;;;;;;15.20;8.77;;;;;;;11.59;77.28;98545.22;5078674;28;20036;-80
2022/09/29 08:41:43;;;;;;;19.98;8.70;;;;;;;11.59;76.79;98543.38;5077625;28;20048;-80
2022/09/29 08:44:11;;;;;;;19.33;8.05;;;;;;;11.70;76.58;98548.34;5079071;28;20101;-80
2022/09/29 08:47:03;;;;;;;16.45;8.55;;;;;;;11.71;75.75;98551.81;5101489;28;20036;-80
2022/09/29 08:49:51;;;;;;;20.25;8.13;;;;;;;11.74;75.83;98546.13;5098914;28;20402;-80
2022/09/29 08:52:24;;;;;;;19.83;7.85;;;;;;;11.78;75.87;98546.59;5061306;28;20047;-80
2022/09/29 08:54:57;;;;;;;17.80;8.15;;;;;;;11.82;76.01;98551.41;5078601;28;20048;-80
2022/09/29 08:57:25;;;;;;;18.20;7.65;;;;;;;11.90;75.84;98550.56;5073806;28;20119;-80
2022/09/29 08:59:57;;;;;;;20.85;8.65;;;;;;;11.90;75.66;98551.38;5087068;28;20171;-81
2022/09/29 09:02:46;;;;;;;17.75;8.43;;;;;;;11.87;75.14;98554.41;5071409;28;20056;-80
2022/09/29 09:05:12;;;;;;;18.77;8.15;;;;;;;11.92;75.35;98549.38;5067140;28;20043;-80
2022/09/29 09:07:55;;;;;;;21.20;7.50;;;;;;;11.89;75.07;98548.91;5082491;28;20050;-80
2022/09/29 09:11:07;;;;;;;16.20;7.05;;;;;;;11.86;74.68;98554.56;5078348;28;20040;-80
2022/09/29 09:13:57;;;;;;;13.52;7.03;;;;;;;11.88;74.24;98556.06;4980387;28;20185;-80
2022/09/29 09:16:51;;;;;;;14.20;7.40;;;;;;;11.91;74.74;98560.22;5072680;28;20051;-80
2022/09/29 09:19:24;;;;;;;15.43;7.03;;;;;;;12.00;74.76;98563.63;5093952;28;20040;-80
2022/09/29 09:22:05;;;;;;;;;;;;;;;11.85;73.79;98564.34;5100329;28;20047;-80
2022/09/29 09:24:58;;;;;;;19.38;8.57;;;;;;;11.91;73.50;98562.88;5083635;28;19919;-80
2022/09/29 09:27:29;;;;;;;19.30;8.27;;;;;;;12.01;73.70;98560.81;5074025;28;20091;-81
2022/09/29 09:30:02;;;;;;;18.88;6.97;;;;;;;12.04;73.95;98554.31;5081479;28;20063;-80
2022/09/29 09:32:31;;;;;;;19.65;8.38;;;;;;;12.13;73.88;98561.22;5055164;28;20490;-80
2022/09/29 09:35:03;;;;;;;18.63;7.95;;;;;;;12.15;73.91;98560.03;5076555;28;20043;-80
2022/09/29 09:37:48;;;;;;;30.15;9.45;;;;;;;12.22;73.73;98568.16;5086503;28;20040;-81
2022/09/29 09:40:26;;;;;;;18.58;8.00;;;;;;;12.20;73.32;98562.19;5076448;28;20109;-80
2022/09/29 09:43:05;;;;;;;17.20;7.60;;;;;;;12.21;73.29;98558.50;5091108;28;20101;-80
2022/09/29 09:45:42;;;;;;;20.00;7.32;;;;;;;12.28;73.51;98555.97;5073696;28;20112;-80
2022/09/29 09:48:15;;;;;;;15.95;8.35;;;;;;;12.25;72.83;98561.66;5084048;28;20568;-80
2022/09/29 09:50:49;;;;;;;15.00;7.90;;;;;;;12.27;73.23;98554.31;5088281;28;20047;-80
2022/09/29 09:53:25;;;;;;;19.88;7.57;;;;;;;12.27;72.97;98560.47;5078509;28;20051;-80
2022/09/29 09:56:04;;;;;;;18.15;6.85;;;;;;;12.28;72.79;98556.78;5071302;28;20036;-80
2022/09/29 09:59:08;;;;;;;15.88;6.18;;;;;;;12.27;73.01;98555.13;5086504;28;20032;-80
2022/09/29 10:01:35;;;;;;;14.38;6.70;;;;;;;12.38;73.41;98549.38;5105795;28;20051;-80
2022/09/29 10:04:02;;;;;;;19.38;7.75;;;;;;;12.43;73.47;98550.69;5066620;28;20080;-80
2022/09/29 10:06:28;;;;;;;18.98;6.72;;;;;;;12.40;72.41;98557.19;5083873;28;20409;-80
2022/09/29 10:08:55;;;;;;;15.40;6.85;;;;;;;12.43;71.78;98551.50;5088186;28;20471;-80
2022/09/29 10:11:30;;;;;;;21.77;6.65;;;;;;;12.34;71.50;98558.75;5099305;28;20499;-80
2022/09/29 10:14:01;;;;;;;15.82;6.50;;;;;;;12.37;71.27;98561.06;5066575;28;20088;-81
2022/09/29 10:16:40;;;;;;;15.52;5.70;;;;;;;12.32;71.27;98560.75;5077792;28;20109;-80
2022/09/29 10:19:09;;;;;;;10.88;5.30;;;;;;;12.37;71.83;98562.88;5087586;28;20042;-80
2022/09/29 10:21:39;;;;;;;14.70;6.15;;;;;;;12.36;71.64;98569.19;5076832;28;20478;-80
2022/09/29 10:24:23;;;;;;;20.40;6.18;;;;;;;12.29;70.87;98565.63;5070983;28;20429;-81
2022/09/29 10:26:54;;;;;;;11.98;5.28;;;;;;;12.35;71.41;98560.41;5105175;28;20263;-80
2022/09/29 10:29:24;;;;;;;11.40;5.00;;;;;;;12.35;71.34;98568.38;5073110;28;20089;-80
2022/09/29 10:31:58;;;;;;;16.08;8.02;;;;;;;12.34;71.28;98566.75;5081163;28;20052;-80
2022/09/29 10:34:25;;;;;;;12.20;6.75;;;;;;;12.36;71.64;98569.19;5092366;28;20032;-80
2022/09/29 10:36:57;;;;;;;18.92;6.00;;;;;;;12.36;71.91;98571.88;5073733;28;20055;-80
2022/09/29 10:39:43;;;;;;;10.20;5.57;;;;;;;12.34;71.68;98574.72;5091370;28;20108;-80
2022/09/29 10:42:26;;;;;;;12.95;6.10;;;;;;;12.34;71.74;98573.91;5068864;28;20047;-80
2022/09/29 10:45:20;;;;;;;18.08;5.63;;;;;;;12.33;71.89;98581.03;5082454;28;20036;-80
2022/09/29 10:47:56;;;;;;;19.23;6.97;;;;;;;12.38;71.72;98578.66;5082059;28;20469;-84
2022/09/29 10:50:28;;;;;;;13.68;6.85;;;;;;;12.45;71.64;98581.47;5091762;28;20035;-84
2022/09/29 10:53:03;;;;;;;18.65;6.85;;;;;;;12.50;71.91;98567.63;5100356;28;20043;-84
2022/09/29 10:55:35;;;;;;;11.65;5.97;;;;;;;12.52;71.85;98570.94;5079875;28;20089;-84
2022/09/29 10:58:34;;;;;;;11.20;5.93;;;;;;;12.47;71.24;98567.97;5086607;28;20484;-84
2022/09/29 11:01:21;;;;;;;15.60;5.82;;;;;;;12.50;71.65;98568.44;5090534;28;20034;-84
2022/09/29 11:03:53;;;;;;;20.65;6.47;;;;;;;12.49;71.16;98569.47;5076380;28;20051;-83
2022/09/29 11:06:27;;;;;;;20.58;7.18;;;;;;;12.48;71.07;98570.44;5097268;28;20445;-84
2022/09/29 11:08:55;;;;;;;15.45;6.45;;;;;;;12.52;71.24;98569.09;5088211;28;20064;-83
2022/09/29 11:11:25;;;;;;;14.25;6.55;;;;;;;12.53;71.13;98564.59;5069197;28;20048;-84
2022/09/29 11:13:52;;;;;;;13.32;6.05;;;;;;;12.55;71.39;98565.25;5098807;28;20048;-83
2022/09/29 11:16:28;;;;;;;15.77;6.15;;;;;;;12.53;70.68;98556.59;5070313;28;20104;-84
2022/09/29 11:19:11;;;;;;;11.25;5.95;;;;;;;12.58;70.60;98564.88;5085484;28;20128;-84
2022/09/29 11:21:41;;;;;;;14.15;6.05;;;;;;;12.60;70.47;98568.19;5073029;28;20954;-84
2022/09/29 11:24:26;;;;;;;13.80;5.82;;;;;;;12.64;70.67;98569.47;5082152;28;20107;-84
2022/09/29 11:27:23;;;;;;;16.77;5.95;;;;;;;12.56;70.07;98570.38;5099269;28;20536;-84
2022/09/29 11:29:59;;;;;;;15.63;5.47;;;;;;;12.59;70.29;98571.84;5103500;28;20080;-84
2022/09/29 11:32:31;;;;;;;13.70;5.55;;;;;;;12.59;70.54;98572.69;5071684;28;20048;-84
2022/09/29 11:35:35;;;;;;;16.88;6.10;;;;;;;12.52;70.82;98577.06;5087985;28;20104;-84
2022/09/29 11:38:12;;;;;;;17.98;5.82;;;;;;;12.59;70.56;98574.50;5005667;28;20572;-84
2022/09/29 11:41:08;;;;;;;12.45;5.63;;;;;;;12.58;69.98;98568.34;5074862;28;20475;-84
2022/09/29 11:43:53;;;;;;;10.00;5.10;;;;;;;12.66;70.22;98574.63;5101430;28;20398;-84
2022/09/29 11:46:30;;;;;;;11.13;4.80;;;;;;;12.71;70.51;98570.41;5059046;28;20055;-84
2022/09/29 11:49:18;;;;;;;12.10;4.70;;;;;;;12.74;70.00;98569.22;5074848;28;20478;-84
2022/09/29 11:52:17;;;;;;;15.13;5.57;;;;;;;12.69;69.73;98580.41;5087048;28;20475;-84
2022/09/29 11:54:47;;;;;;;9.07;4.88;;;;;;;12.78;69.68;98576.69;5048410;28;20097;-83